createdAt,value
2022-12-23T00:01:58.769Z,-1.00
2022-12-23T00:04:29.311Z,-1.02
2022-12-23T00:06:58.648Z,-1.06
2022-12-23T00:09:27.889Z,-1.07
2022-12-23T00:12:16.081Z,-1.09
2022-12-23T00:15:03.481Z,-1.11
2022-12-23T00:17:37.529Z,-1.14
2022-12-23T00:20:06.540Z,-1.14
2022-12-23T00:22:53.263Z,-1.13
2022-12-23T00:25:43.921Z,-1.09
2022-12-23T00:28:15.769Z,-1.02
2022-12-23T00:30:54.135Z,-0.96
2022-12-23T00:33:25.632Z,-0.93
2022-12-23T00:35:54.671Z,-0.89
2022-12-23T00:44:21.485Z,-0.78
2022-12-23T00:46:50.284Z,-0.76
2022-12-23T00:49:38.284Z,-0.75
2022-12-23T00:52:07.477Z,-0.74
2022-12-23T00:54:36.590Z,-0.74
2022-12-23T00:57:05.190Z,-0.76
2022-12-23T00:59:35.275Z,-0.78
2022-12-23T01:02:25.020Z,-0.77
2022-12-23T01:05:11.846Z,-0.79
2022-12-23T01:07:40.107Z,-0.81
2022-12-23T01:10:09.164Z,-0.83
2022-12-23T01:12:37.473Z,-0.86
2022-12-23T01:15:06.194Z,-0.90
2022-12-23T01:17:34.137Z,-0.93
2022-12-23T01:20:02.350Z,-0.96
2022-12-23T01:22:30.494Z,-0.99
2022-12-23T01:24:58.614Z,-0.97
2022-12-23T01:27:26.767Z,-0.97
2022-12-23T01:29:54.887Z,-0.96
2022-12-23T01:32:23.004Z,-0.95
2022-12-23T01:34:52.594Z,-0.93
2022-12-23T01:37:21.060Z,-0.94
2022-12-23T01:39:49.198Z,-0.92
2022-12-23T01:42:39.024Z,-0.91
2022-12-23T01:45:29.635Z,-0.91
2022-12-23T01:48:10.208Z,-0.90
2022-12-23T01:50:44.819Z,-0.89
2022-12-23T01:53:22.487Z,-0.91
2022-12-23T01:55:56.704Z,-0.94
2022-12-23T01:58:28.678Z,-0.94
2022-12-23T02:01:16.710Z,-0.92
2022-12-23T02:03:47.494Z,-0.91
2022-12-23T02:06:43.072Z,-0.89
2022-12-23T02:09:19.789Z,-0.87
2022-12-23T02:12:06.471Z,-0.84
2022-12-23T02:15:20.961Z,-0.82
2022-12-23T02:18:04.137Z,-0.80
2022-12-23T02:21:11.340Z,-0.79
2022-12-23T02:23:47.923Z,-0.77
2022-12-23T02:26:35.012Z,-0.74
2022-12-23T02:29:46.025Z,-0.72
2022-12-23T02:32:47.816Z,-0.67
2022-12-23T02:35:38.193Z,-0.62
2022-12-23T02:38:24.071Z,-0.58
2022-12-23T02:41:12.449Z,-0.55
2022-12-23T02:44:02.351Z,-0.53
2022-12-23T02:46:49.571Z,-0.50
2022-12-23T02:49:35.591Z,-0.48
2022-12-23T02:52:13.302Z,-0.44
2022-12-23T02:54:49.433Z,-0.42
2022-12-23T02:57:21.481Z,-0.40
2022-12-23T02:59:54.227Z,-0.37
2022-12-23T03:02:22.684Z,-0.34
2022-12-23T03:04:51.997Z,-0.34
2022-12-23T03:07:43.256Z,-0.36
2022-12-23T03:10:20.616Z,-0.33
2022-12-23T03:13:17.200Z,-0.34
2022-12-23T03:15:50.040Z,-0.32
2022-12-23T03:18:32.980Z,-0.30
2022-12-23T03:21:36.564Z,-0.31
2022-12-23T03:24:17.796Z,-0.31
2022-12-23T03:26:54.143Z,-0.32
2022-12-23T03:29:44.388Z,-0.32
2022-12-23T03:32:16.230Z,-0.36
2022-12-23T03:34:48.389Z,-0.34
2022-12-23T03:37:20.232Z,-0.36
2022-12-23T03:40:25.073Z,-0.36
2022-12-23T03:43:01.339Z,-0.39
2022-12-23T03:45:42.292Z,-0.46
2022-12-23T03:48:20.450Z,-0.47
2022-12-23T03:50:54.315Z,-0.49
2022-12-23T03:53:46.853Z,-0.52
2022-12-23T03:56:23.544Z,-0.53
2022-12-23T03:58:58.644Z,-0.54
2022-12-23T04:01:46.262Z,-0.54
2022-12-23T04:04:28.397Z,-0.56
2022-12-23T04:07:14.308Z,-0.56
2022-12-23T04:09:43.806Z,-0.54
2022-12-23T04:12:14.693Z,-0.53
2022-12-23T04:14:48.977Z,-0.53
2022-12-23T04:17:18.209Z,-0.53
2022-12-23T04:19:48.285Z,-0.54
2022-12-23T04:22:16.853Z,-0.55
2022-12-23T04:24:47.070Z,-0.54
2022-12-23T04:27:16.378Z,-0.53
2022-12-23T04:29:44.952Z,-0.50
2022-12-23T04:32:13.818Z,-0.47
2022-12-23T04:34:41.841Z,-0.46
2022-12-23T04:37:11.992Z,-0.43
2022-12-23T04:39:41.705Z,-0.38
2022-12-23T04:42:13.606Z,-0.37
2022-12-23T04:44:41.798Z,-0.37
2022-12-23T04:47:10.688Z,-0.38
2022-12-23T04:49:38.932Z,-0.43
2022-12-23T04:52:07.096Z,-0.48
2022-12-23T04:54:43.856Z,-0.52
2022-12-23T04:57:15.385Z,-0.55
2022-12-23T04:59:43.604Z,-0.56
2022-12-23T05:02:12.744Z,-0.58
2022-12-23T05:04:47.860Z,-0.62
2022-12-23T05:07:16.701Z,-0.63
2022-12-23T05:09:44.769Z,-0.63
2022-12-23T05:12:12.952Z,-0.63
2022-12-23T05:14:43.722Z,-0.64
2022-12-23T05:17:11.789Z,-0.64
2022-12-23T05:19:40.054Z,-0.63
2022-12-23T05:22:08.426Z,-0.63
2022-12-23T05:24:36.603Z,-0.63
2022-12-23T05:27:04.905Z,-0.63
2022-12-23T05:29:32.969Z,-0.63
2022-12-23T05:32:01.148Z,-0.64
2022-12-23T05:34:29.283Z,-0.64
2022-12-23T05:36:57.543Z,-0.62
2022-12-23T05:39:25.862Z,-0.62
2022-12-23T05:41:54.045Z,-0.60
2022-12-23T05:44:22.085Z,-0.59
2022-12-23T05:46:50.175Z,-0.56
2022-12-23T05:49:18.281Z,-0.55
2022-12-23T05:51:46.497Z,-0.54
2022-12-23T05:54:15.904Z,-0.50
2022-12-23T05:56:44.168Z,-0.48
2022-12-23T05:59:12.691Z,-0.47
2022-12-23T06:01:43.055Z,-0.47
2022-12-23T06:04:14.308Z,-0.48
2022-12-23T06:06:42.481Z,-0.47
2022-12-23T06:09:10.736Z,-0.45
2022-12-23T06:11:38.919Z,-0.41
2022-12-23T06:14:10.298Z,-0.40
2022-12-23T06:16:42.839Z,-0.37
2022-12-23T06:19:11.136Z,-0.32
2022-12-23T06:21:39.698Z,-0.30
2022-12-23T06:24:09.017Z,-0.29
2022-12-23T06:26:38.267Z,-0.23
2022-12-23T06:29:07.610Z,-0.11
2022-12-23T06:31:35.775Z,0.02
2022-12-23T06:34:03.871Z,0.19
2022-12-23T06:36:32.635Z,0.36
2022-12-23T06:39:00.799Z,0.53
2022-12-23T06:41:28.961Z,0.63
2022-12-23T06:44:02.145Z,0.94
2022-12-23T06:46:30.596Z,1.50
2022-12-23T06:48:58.823Z,1.72
2022-12-23T06:51:27.179Z,1.69
2022-12-23T06:53:55.951Z,1.65
2022-12-23T06:56:25.626Z,1.58
2022-12-23T06:58:56.855Z,1.54
2022-12-23T07:01:27.116Z,1.47
2022-12-23T07:03:56.574Z,1.45
2022-12-23T07:06:24.671Z,1.45
2022-12-23T07:08:52.825Z,1.44
2022-12-23T07:11:20.987Z,1.44
2022-12-23T07:13:49.156Z,1.45
2022-12-23T07:16:17.815Z,1.51
2022-12-23T07:18:46.061Z,1.56
2022-12-23T07:21:24.586Z,1.63
2022-12-23T07:23:58.275Z,1.70
2022-12-23T07:26:26.465Z,1.74
2022-12-23T07:28:54.669Z,1.80
2022-12-23T07:31:23.037Z,1.85
2022-12-23T07:33:51.099Z,1.95
2022-12-23T07:36:19.338Z,2.07
2022-12-23T07:38:51.848Z,2.21
2022-12-23T07:41:21.282Z,2.33
2022-12-23T07:43:50.166Z,2.45
2022-12-23T07:46:19.625Z,2.56
2022-12-23T07:48:47.666Z,2.66
2022-12-23T07:51:15.780Z,2.70
2022-12-23T07:53:44.047Z,2.81
2022-12-23T07:56:12.047Z,2.99
2022-12-23T07:58:41.307Z,3.49
2022-12-23T08:01:09.552Z,4.49
2022-12-23T08:03:37.928Z,5.28
2022-12-23T08:06:12.414Z,5.65
2022-12-23T08:08:42.156Z,5.90
2022-12-23T08:11:12.407Z,6.20
2022-12-23T08:13:43.115Z,6.39
2022-12-23T08:16:12.920Z,6.63
2022-12-23T08:18:42.156Z,7.41
2022-12-23T08:21:16.825Z,7.87
2022-12-23T08:23:48.502Z,8.13
2022-12-23T08:26:22.521Z,8.77
2022-12-23T08:28:55.387Z,9.64
2022-12-23T08:31:34.416Z,10.53
2022-12-23T08:34:04.369Z,11.32
2022-12-23T08:36:34.903Z,11.87
2022-12-23T08:39:09.466Z,12.43
2022-12-23T08:41:41.923Z,12.65
2022-12-23T08:44:10.788Z,12.76
2022-12-23T08:46:39.765Z,13.01
2022-12-23T08:49:08.914Z,13.42
2022-12-23T08:51:38.919Z,13.79
2022-12-23T08:54:07.567Z,14.52
2022-12-23T08:56:39.239Z,15.12
2022-12-23T08:59:18.714Z,15.37
2022-12-23T09:01:48.586Z,15.51
2022-12-23T09:04:17.279Z,16.05
2022-12-23T09:06:46.740Z,16.45
2022-12-23T09:09:15.886Z,16.87
2022-12-23T09:11:45.622Z,17.02
2022-12-23T09:14:14.030Z,17.31
2022-12-23T09:16:42.470Z,17.55
2022-12-23T09:19:10.595Z,17.70
2022-12-23T09:21:38.855Z,17.79
2022-12-23T09:24:06.955Z,18.16
2022-12-23T09:26:36.507Z,18.40
2022-12-23T09:29:05.948Z,18.44
2022-12-23T09:31:57.778Z,18.72
2022-12-23T09:34:26.805Z,18.82
2022-12-23T09:36:55.665Z,18.89
2022-12-23T09:39:25.950Z,18.83
2022-12-23T09:42:06.190Z,18.87
2022-12-23T09:45:13.326Z,18.97
2022-12-23T09:47:43.113Z,19.24
2022-12-23T09:50:29.722Z,19.48
2022-12-23T09:53:12.834Z,19.58
2022-12-23T09:56:09.145Z,19.54
2022-12-23T09:59:03.619Z,19.65
2022-12-23T10:01:48.940Z,19.41
2022-12-23T10:04:45.687Z,19.77
2022-12-23T10:07:34.262Z,19.78
2022-12-23T10:10:13.614Z,20.15
2022-12-23T10:12:49.472Z,20.51
2022-12-23T10:15:42.902Z,20.51
2022-12-23T10:18:21.865Z,20.59
2022-12-23T10:21:31.700Z,20.96
2022-12-23T10:24:06.150Z,21.18
2022-12-23T10:26:53.295Z,21.58
2022-12-23T10:29:27.831Z,21.61
2022-12-23T10:32:33.383Z,21.70
2022-12-23T10:35:11.468Z,21.99
2022-12-23T10:38:09.667Z,22.08
2022-12-23T10:41:14.395Z,22.36
2022-12-23T10:43:52.687Z,22.24
2022-12-23T10:46:38.937Z,22.60
2022-12-23T10:49:24.142Z,22.65
2022-12-23T10:52:00.469Z,22.68
2022-12-23T10:54:34.223Z,23.19
2022-12-23T10:57:05.843Z,23.51
2022-12-23T10:59:36.150Z,23.34
2022-12-23T11:02:14.607Z,23.25
2022-12-23T11:04:48.946Z,23.14
2022-12-23T11:07:43.591Z,23.15
2022-12-23T11:10:26.279Z,23.41
2022-12-23T11:12:54.864Z,23.19
2022-12-23T11:15:33.428Z,23.07
2022-12-23T11:18:06.308Z,23.20
2022-12-23T11:20:36.808Z,23.26
2022-12-23T11:23:06.964Z,23.15
2022-12-23T11:25:37.331Z,23.26
2022-12-23T11:28:16.901Z,23.31
2022-12-23T11:30:59.189Z,23.23
2022-12-23T11:33:31.569Z,23.21
2022-12-23T11:36:14.948Z,23.22
2022-12-23T11:39:18.368Z,23.27
2022-12-23T11:41:49.952Z,23.20
2022-12-23T11:44:21.030Z,23.33
2022-12-23T11:46:50.219Z,23.53
2022-12-23T11:49:23.149Z,23.29
2022-12-23T11:52:02.485Z,23.44
2022-12-23T11:54:55.267Z,23.31
2022-12-23T11:57:40.723Z,23.51
2022-12-23T12:01:48.760Z,23.49
2022-12-23T12:04:24.901Z,22.88
2022-12-23T12:06:56.846Z,22.78
2022-12-23T12:09:25.561Z,22.79
2022-12-23T12:12:03.660Z,22.64
2022-12-23T12:14:43.452Z,22.66
2022-12-23T12:17:15.010Z,22.43
2022-12-23T12:20:01.668Z,22.53
2022-12-23T12:22:42.885Z,22.49
2022-12-23T12:25:36.349Z,22.09
2022-12-23T12:28:34.689Z,22.17
2022-12-23T12:31:14.427Z,22.06
2022-12-23T12:34:05.813Z,22.14
2022-12-23T12:37:16.317Z,21.97
2022-12-23T12:40:08.327Z,21.70
2022-12-23T12:42:44.327Z,21.42
2022-12-23T12:45:21.806Z,20.96
2022-12-23T12:47:55.186Z,20.56
2022-12-23T12:50:43.827Z,20.11
2022-12-23T12:53:20.168Z,19.77
2022-12-23T12:55:55.457Z,19.33
2022-12-23T12:58:24.612Z,18.98
2022-12-23T13:01:17.490Z,18.95
2022-12-23T13:04:04.169Z,18.45
2022-12-23T13:06:39.509Z,18.16
2022-12-23T13:09:17.004Z,17.96
2022-12-23T13:12:33.656Z,17.55
2022-12-23T13:15:04.640Z,17.26
2022-12-23T13:17:42.980Z,16.99
2022-12-23T13:20:27.634Z,16.67
2022-12-23T13:23:27.012Z,16.35
2022-12-23T13:26:02.099Z,16.25
2022-12-23T13:29:09.198Z,16.07
2022-12-23T13:32:10.882Z,15.77
2022-12-23T13:35:24.948Z,15.58
2022-12-23T13:38:14.644Z,15.43
2022-12-23T13:41:14.060Z,15.20
2022-12-23T13:44:01.892Z,15.13
2022-12-23T13:46:50.948Z,15.03
2022-12-23T13:49:28.293Z,14.82
2022-12-23T13:52:06.155Z,14.57
2022-12-23T13:54:43.576Z,14.44
2022-12-23T13:57:46.685Z,14.25
2022-12-23T14:00:18.149Z,14.07
2022-12-23T14:03:08.880Z,13.84
2022-12-23T14:05:41.801Z,13.57
2022-12-23T14:08:24.657Z,13.25
2022-12-23T14:11:12.130Z,12.80
2022-12-23T14:14:02.908Z,12.37
2022-12-23T14:16:59.255Z,12.02
2022-12-23T14:20:09.242Z,11.67
2022-12-23T14:23:00.253Z,11.32
2022-12-23T14:26:00.041Z,10.96
2022-12-23T14:29:01.940Z,10.64
2022-12-23T14:31:34.684Z,10.31
2022-12-23T14:34:26.375Z,10.06
2022-12-23T14:37:25.992Z,9.84
2022-12-23T14:39:59.526Z,9.61
2022-12-23T14:42:40.968Z,9.32
2022-12-23T14:45:30.153Z,9.08
2022-12-23T14:48:00.853Z,8.90
2022-12-23T14:50:37.650Z,8.78
2022-12-23T14:53:29.685Z,8.68
2022-12-23T14:56:10.524Z,8.56
2022-12-23T14:58:46.291Z,8.42
2022-12-23T15:01:27.077Z,8.22
2022-12-23T15:04:01.643Z,8.12
2022-12-23T15:06:41.651Z,8.00
2022-12-23T15:09:21.454Z,7.82
2022-12-23T15:11:50.039Z,7.76
2022-12-23T15:14:42.106Z,7.68
2022-12-23T15:17:32.074Z,7.53
2022-12-23T15:20:12.803Z,7.46
2022-12-23T15:22:43.936Z,7.41
2022-12-23T15:25:24.844Z,7.34
2022-12-23T15:28:01.239Z,7.32
2022-12-23T15:30:50.110Z,7.25
2022-12-23T15:36:32.419Z,7.10
2022-12-23T15:39:01.919Z,7.08
2022-12-23T15:41:30.295Z,7.05
2022-12-23T15:44:01.933Z,7.02
2022-12-23T15:46:31.880Z,7.02
2022-12-23T15:49:02.177Z,6.99
2022-12-23T15:52:07.930Z,6.98
2022-12-23T15:54:53.339Z,6.94
2022-12-23T15:57:26.497Z,6.94
2022-12-23T16:00:31.537Z,6.97
2022-12-23T16:03:02.256Z,6.99
2022-12-23T16:05:34.327Z,7.02
2022-12-23T16:08:21.805Z,7.05
2022-12-23T16:11:18.152Z,7.05
2022-12-23T16:14:03.039Z,7.02
2022-12-23T16:16:40.589Z,6.99
2022-12-23T16:19:46.874Z,6.99
2022-12-23T16:22:21.196Z,6.96
2022-12-23T16:24:54.707Z,6.92
2022-12-23T16:27:48.297Z,6.86
2022-12-23T16:30:24.432Z,6.79
2022-12-23T16:32:58.542Z,6.67
2022-12-23T16:35:39.342Z,6.58
2022-12-23T16:38:18.431Z,6.45
2022-12-23T16:40:51.666Z,6.39
2022-12-23T16:43:21.309Z,6.34
2022-12-23T16:45:59.423Z,6.20
2022-12-23T16:48:35.271Z,6.08
2022-12-23T16:51:08.062Z,6.00
2022-12-23T16:53:37.766Z,5.90
2022-12-23T16:56:14.812Z,5.82
2022-12-23T16:58:44.253Z,5.65
2022-12-23T17:01:25.483Z,5.53
2022-12-23T17:03:56.084Z,5.43
2022-12-23T17:06:24.817Z,5.32
2022-12-23T17:08:53.580Z,5.19
2022-12-23T17:11:45.256Z,5.13
2022-12-23T17:14:25.005Z,5.08
2022-12-23T17:16:54.814Z,5.00
2022-12-23T17:19:29.050Z,4.96
2022-12-23T17:22:04.131Z,4.90
2022-12-23T17:24:35.292Z,4.81
2022-12-23T17:27:17.130Z,4.75
2022-12-23T17:29:45.423Z,4.65
2022-12-23T17:32:19.540Z,4.56
2022-12-23T17:34:47.874Z,4.46
2022-12-23T17:37:20.276Z,4.40
2022-12-23T17:39:49.482Z,4.39
2022-12-23T17:42:25.837Z,4.36
2022-12-23T17:44:57.673Z,4.35
2022-12-23T17:47:29.813Z,4.26
2022-12-23T17:49:58.309Z,4.22
2022-12-23T17:52:26.550Z,4.22
2022-12-23T17:54:55.805Z,4.18
2022-12-23T17:57:26.785Z,4.13
2022-12-23T17:59:55.178Z,4.07
2022-12-23T18:02:33.238Z,4.07
2022-12-23T18:05:03.176Z,4.08
2022-12-23T18:07:34.598Z,4.13
2022-12-23T18:10:02.817Z,4.15
2022-12-23T18:16:50.719Z,4.19
2022-12-23T18:23:39.809Z,4.28
2022-12-23T18:30:26.890Z,4.13
2022-12-23T19:35:12.859Z,3.40
2022-12-23T20:04:28.086Z,3.21
2022-12-23T20:33:57.491Z,2.90
2022-12-23T20:45:05.346Z,2.89
2022-12-23T21:23:57.236Z,2.56
2022-12-23T21:37:53.834Z,2.51
2022-12-23T21:48:59.857Z,2.28
2022-12-23T21:55:47.555Z,2.27
2022-12-23T22:02:35.547Z,2.26
2022-12-23T22:09:24.483Z,2.24
2022-12-23T22:16:13.588Z,2.21
2022-12-23T22:23:00.401Z,2.19
2022-12-23T22:29:48.126Z,2.08
2022-12-23T22:36:35.188Z,2.03
2022-12-23T22:47:41.903Z,2.02
2022-12-23T22:54:31.860Z,1.98
2022-12-23T23:06:00.876Z,1.79
2022-12-23T23:17:05.912Z,1.82
2022-12-23T23:28:08.233Z,1.83
2022-12-23T23:34:54.681Z,1.80
2022-12-23T23:50:17.010Z,1.66
2022-12-23T23:57:03.506Z,1.70
